createdAt,value
2019-06-26T00:02:28.518Z,19.20
2019-06-26T00:04:58.629Z,19.30
2019-06-26T00:07:28.725Z,19.20
2019-06-26T00:09:58.796Z,19.30
2019-06-26T00:12:48.100Z,19.20
2019-06-26T00:15:18.359Z,19.30
2019-06-26T00:18:07.325Z,19.30
2019-06-26T00:20:37.773Z,19.30
2019-06-26T00:26:01.112Z,19.40
2019-06-26T00:28:43.137Z,19.40
2019-06-26T00:31:13.961Z,19.30
2019-06-26T00:33:44.053Z,19.30
2019-06-26T00:36:14.189Z,19.30
2019-06-26T00:38:44.268Z,19.30
2019-06-26T00:41:14.364Z,19.20
2019-06-26T00:43:44.426Z,19.30
2019-06-26T00:46:14.504Z,19.30
2019-06-26T00:48:44.641Z,19.30
2019-06-26T00:51:14.760Z,19.20
2019-06-26T00:53:44.843Z,19.30
2019-06-26T00:56:14.890Z,19.20
2019-06-26T00:58:44.999Z,19.20
2019-06-26T01:01:20.749Z,19.20
2019-06-26T01:03:52.439Z,19.10
2019-06-26T01:06:44.364Z,19.10
2019-06-26T01:09:15.600Z,19.10
2019-06-26T01:12:03.893Z,19.00
2019-06-26T01:14:34.035Z,19.00
2019-06-26T01:17:04.091Z,18.90
2019-06-26T01:19:34.800Z,19.00
2019-06-26T01:22:04.857Z,18.90
2019-06-26T01:24:35.021Z,18.90
2019-06-26T01:27:05.109Z,18.90
2019-06-26T01:29:35.241Z,18.90
2019-06-26T01:32:05.420Z,18.80
2019-06-26T01:34:35.512Z,18.80
2019-06-26T01:37:05.570Z,18.80
2019-06-26T01:39:35.709Z,18.70
2019-06-26T01:42:05.781Z,18.60
2019-06-26T01:44:35.912Z,18.60
2019-06-26T01:47:06.081Z,18.60
2019-06-26T01:49:55.260Z,18.50
2019-06-26T01:52:25.329Z,18.50
2019-06-26T01:55:06.078Z,18.40
2019-06-26T01:57:36.073Z,18.40
2019-06-26T02:00:07.184Z,18.40
2019-06-26T02:02:37.257Z,18.40
2019-06-26T02:05:07.610Z,18.30
2019-06-26T02:07:37.768Z,18.30
2019-06-26T02:10:09.657Z,18.30
2019-06-26T02:12:39.820Z,18.30
2019-06-26T02:15:11.009Z,18.40
2019-06-26T02:17:41.052Z,18.40
2019-06-26T02:20:11.558Z,18.50
2019-06-26T02:22:41.649Z,18.50
2019-06-26T02:25:11.822Z,18.60
2019-06-26T02:27:43.354Z,18.60
2019-06-26T02:30:13.412Z,18.80
2019-06-26T02:33:03.680Z,18.90
2019-06-26T02:35:33.848Z,18.90
2019-06-26T02:38:03.957Z,19.00
2019-06-26T02:40:34.026Z,19.10
2019-06-26T02:43:06.944Z,19.10
2019-06-26T02:45:36.077Z,19.20
2019-06-26T02:48:06.137Z,19.40
2019-06-26T02:50:36.210Z,19.60
2019-06-26T02:53:06.302Z,19.70
2019-06-26T02:55:36.347Z,19.70
2019-06-26T02:58:06.473Z,19.70
2019-06-26T03:00:36.541Z,19.70
2019-06-26T03:03:06.598Z,19.70
2019-06-26T03:05:36.687Z,19.80
2019-06-26T03:08:06.767Z,19.80
2019-06-26T03:10:54.697Z,19.80
2019-06-26T03:13:24.945Z,19.80
2019-06-26T03:16:23.819Z,19.80
2019-06-26T03:18:53.890Z,19.80
2019-06-26T03:21:43.632Z,19.80
2019-06-26T03:24:13.670Z,19.90
2019-06-26T03:27:09.689Z,19.90
2019-06-26T03:29:39.735Z,19.90
2019-06-26T03:32:30.242Z,20.10
2019-06-26T03:35:00.326Z,20.20
2019-06-26T03:40:29.660Z,20.40
2019-06-26T03:43:18.801Z,20.40
2019-06-26T03:45:48.881Z,20.60
2019-06-26T03:48:33.088Z,20.70
2019-06-26T03:51:03.362Z,20.90
2019-06-26T03:53:33.446Z,21.10
2019-06-26T03:56:03.488Z,21.20
2019-06-26T03:58:33.579Z,21.30
2019-06-26T04:01:03.641Z,21.30
2019-06-26T04:03:33.719Z,21.20
2019-06-26T04:06:03.765Z,21.20
2019-06-26T04:08:33.836Z,21.20
2019-06-26T04:11:03.893Z,21.20
2019-06-26T04:13:33.987Z,21.20
2019-06-26T04:16:04.054Z,21.30
2019-06-26T04:18:34.108Z,21.50
2019-06-26T04:21:11.488Z,21.60
2019-06-26T04:23:41.552Z,21.70
2019-06-26T04:26:33.684Z,21.60
2019-06-26T04:29:03.880Z,21.60
2019-06-26T04:31:54.887Z,21.60
2019-06-26T04:34:25.038Z,21.60
2019-06-26T04:36:56.356Z,21.50
2019-06-26T04:39:26.794Z,21.50
2019-06-26T04:41:56.829Z,21.60
2019-06-26T04:44:26.936Z,21.60
2019-06-26T04:46:57.024Z,21.50
2019-06-26T04:49:46.124Z,21.50
2019-06-26T04:52:16.285Z,21.60
2019-06-26T04:54:46.381Z,21.60
2019-06-26T04:57:16.474Z,21.70
2019-06-26T04:59:46.509Z,21.80
2019-06-26T05:02:16.704Z,22.00
2019-06-26T05:04:46.770Z,22.30
2019-06-26T05:07:16.851Z,22.60
2019-06-26T05:09:46.906Z,22.60
2019-06-26T05:12:17.005Z,22.70
2019-06-26T05:15:10.547Z,22.90
2019-06-26T05:17:40.718Z,23.20
2019-06-26T05:20:31.918Z,23.60
2019-06-26T05:23:01.996Z,23.70
2019-06-26T05:25:32.370Z,23.70
2019-06-26T05:28:02.786Z,23.80
2019-06-26T05:30:32.885Z,23.70
2019-06-26T05:33:02.994Z,23.70
2019-06-26T05:35:35.210Z,23.70
2019-06-26T05:38:04.825Z,23.60
2019-06-26T05:40:34.880Z,23.40
2019-06-26T05:43:04.992Z,23.30
2019-06-26T05:45:35.052Z,23.30
2019-06-26T05:48:05.129Z,23.50
2019-06-26T05:50:35.262Z,23.80
2019-06-26T05:53:05.308Z,23.80
2019-06-26T05:55:35.425Z,24.30
2019-06-26T05:58:26.043Z,24.50
2019-06-26T06:00:56.148Z,24.80
2019-06-26T06:03:46.960Z,24.90
2019-06-26T06:06:17.284Z,24.90
2019-06-26T06:08:47.351Z,25.10
2019-06-26T06:11:17.458Z,25.10
2019-06-26T06:13:47.527Z,25.30
2019-06-26T06:16:17.641Z,25.10
2019-06-26T06:18:47.776Z,25.30
2019-06-26T06:21:17.891Z,25.40
2019-06-26T06:23:47.981Z,25.30
2019-06-26T06:26:18.091Z,25.40
2019-06-26T06:28:48.159Z,25.50
2019-06-26T06:31:18.286Z,25.60
2019-06-26T06:33:48.334Z,25.70
2019-06-26T06:36:26.035Z,25.90
2019-06-26T06:38:56.116Z,26.20
2019-06-26T06:41:43.671Z,26.20
2019-06-26T06:44:13.822Z,26.50
2019-06-26T06:46:43.926Z,26.80
2019-06-26T06:49:14.008Z,26.70
2019-06-26T06:51:44.111Z,26.90
2019-06-26T06:54:14.201Z,27.00
2019-06-26T06:56:44.411Z,27.00
2019-06-26T06:59:14.478Z,27.30
2019-06-26T07:01:44.569Z,27.40
2019-06-26T07:04:14.672Z,27.60
2019-06-26T07:06:44.744Z,27.60
2019-06-26T07:09:17.882Z,27.80
2019-06-26T07:11:47.916Z,28.00
2019-06-26T07:14:18.067Z,28.20
2019-06-26T07:16:48.134Z,28.30
2019-06-26T07:19:40.655Z,28.50
2019-06-26T07:22:10.766Z,28.60
2019-06-26T07:25:04.826Z,28.80
2019-06-26T07:27:35.032Z,28.80
2019-06-26T07:30:28.974Z,29.00
2019-06-26T07:32:59.040Z,29.20
2019-06-26T07:35:50.413Z,29.20
2019-06-26T07:38:20.508Z,29.10
2019-06-26T07:41:11.669Z,29.50
2019-06-26T07:43:32.717Z,29.50
2019-06-26T07:46:02.838Z,29.70
2019-06-26T07:48:32.938Z,29.40
2019-06-26T07:51:03.070Z,29.40
2019-06-26T07:53:33.927Z,29.50
2019-06-26T07:56:05.530Z,29.60
2019-06-26T07:58:35.589Z,29.60
2019-06-26T08:01:05.708Z,29.30
2019-06-26T08:03:35.811Z,29.50
2019-06-26T08:06:05.880Z,29.50
2019-06-26T08:08:36.011Z,29.40
2019-06-26T08:11:06.667Z,29.60
2019-06-26T08:13:52.600Z,29.70
2019-06-26T08:16:22.701Z,29.80
2019-06-26T08:19:09.364Z,29.90
2019-06-26T08:21:39.452Z,29.90
2019-06-26T08:24:32.128Z,29.90
2019-06-26T08:27:02.211Z,29.90
2019-06-26T08:29:55.844Z,30.10
2019-06-26T08:32:26.146Z,30.40
2019-06-26T08:35:18.371Z,30.40
2019-06-26T08:37:48.556Z,30.40
2019-06-26T08:40:37.943Z,30.30
2019-06-26T08:42:58.325Z,30.40
2019-06-26T08:45:28.437Z,30.40
2019-06-26T08:47:58.524Z,30.50
2019-06-26T08:50:28.613Z,30.50
2019-06-26T08:52:58.649Z,30.50
2019-06-26T08:55:29.588Z,30.50
2019-06-26T08:57:59.686Z,30.70
2019-06-26T09:00:29.779Z,30.90
2019-06-26T09:02:59.879Z,30.90
2019-06-26T09:05:43.607Z,31.00
2019-06-26T09:08:01.837Z,31.10
2019-06-26T09:10:32.000Z,31.20
2019-06-26T09:13:07.798Z,31.10
2019-06-26T09:15:37.913Z,31.30
2019-06-26T09:18:07.972Z,31.00
2019-06-26T09:20:39.830Z,31.30
2019-06-26T09:23:10.042Z,31.50
2019-06-26T09:25:40.148Z,31.50
2019-06-26T09:28:10.303Z,31.80
2019-06-26T09:30:40.416Z,31.90
2019-06-26T09:33:10.592Z,31.80
2019-06-26T09:35:40.680Z,32.00
2019-06-26T09:38:10.743Z,31.80
2019-06-26T09:40:40.852Z,32.00
2019-06-26T09:43:10.932Z,31.90
2019-06-26T09:45:59.011Z,32.00
2019-06-26T09:48:30.637Z,32.10
2019-06-26T09:51:40.460Z,32.20
2019-06-26T09:54:10.631Z,32.40
2019-06-26T09:56:44.362Z,32.40
2019-06-26T09:59:14.516Z,32.40
2019-06-26T10:02:08.028Z,32.30
2019-06-26T10:04:38.131Z,32.40
2019-06-26T10:09:57.356Z,32.50
2019-06-26T10:12:27.416Z,32.40
2019-06-26T10:14:57.514Z,32.70
2019-06-26T10:17:27.588Z,32.80
2019-06-26T10:19:57.734Z,32.70
2019-06-26T10:22:27.851Z,32.80
2019-06-26T10:24:57.901Z,32.70
2019-06-26T10:27:27.994Z,32.60
2019-06-26T10:29:58.086Z,32.90
2019-06-26T10:32:28.190Z,32.80
2019-06-26T10:34:58.270Z,32.90
2019-06-26T10:37:28.417Z,33.00
2019-06-26T10:40:01.284Z,32.90
2019-06-26T10:42:31.359Z,33.00
2019-06-26T10:45:01.455Z,33.20
2019-06-26T10:47:31.570Z,33.30
2019-06-26T10:50:01.668Z,33.40
2019-06-26T10:52:31.730Z,33.30
2019-06-26T10:55:01.821Z,33.30
2019-06-26T10:57:31.910Z,33.10
2019-06-26T11:00:02.015Z,33.20
2019-06-26T11:02:32.124Z,33.40
2019-06-26T11:05:02.182Z,33.50
2019-06-26T11:07:32.308Z,33.30
2019-06-26T11:10:02.419Z,33.40
2019-06-26T11:12:32.513Z,33.50
2019-06-26T11:15:02.623Z,33.40
2019-06-26T11:17:32.749Z,33.40
2019-06-26T11:20:02.825Z,33.50
2019-06-26T11:22:33.081Z,33.30
2019-06-26T11:25:03.157Z,33.30
2019-06-26T11:27:33.201Z,33.40
2019-06-26T11:30:03.660Z,33.10
2019-06-26T11:32:33.808Z,32.70
2019-06-26T11:35:03.938Z,32.80
2019-06-26T11:37:34.085Z,33.30
2019-06-26T11:40:21.447Z,33.30
2019-06-26T11:42:51.645Z,33.50
2019-06-26T11:45:22.302Z,33.70
2019-06-26T11:47:52.416Z,33.80
2019-06-26T11:50:22.597Z,34.00
2019-06-26T11:52:52.693Z,33.80
2019-06-26T11:55:22.756Z,33.90
2019-06-26T11:57:52.865Z,34.10
2019-06-26T12:00:24.791Z,34.30
2019-06-26T12:02:54.877Z,34.20
2019-06-26T12:05:25.443Z,34.20
2019-06-26T12:07:55.537Z,33.90
2019-06-26T12:10:25.633Z,33.70
2019-06-26T12:13:04.490Z,33.80
2019-06-26T12:15:34.678Z,33.90
2019-06-26T12:18:26.453Z,34.00
2019-06-26T12:20:56.543Z,34.10
2019-06-26T12:23:26.618Z,34.00
2019-06-26T12:25:56.710Z,33.80
2019-06-26T12:28:26.772Z,33.70
2019-06-26T12:30:56.877Z,33.70
2019-06-26T12:33:26.951Z,34.00
2019-06-26T12:35:57.052Z,34.60
2019-06-26T12:38:29.393Z,35.00
2019-06-26T12:40:59.547Z,35.50
2019-06-26T12:43:29.609Z,36.00
2019-06-26T12:45:59.679Z,35.70
2019-06-26T12:48:29.918Z,35.10
2019-06-26T12:51:15.519Z,34.90
2019-06-26T12:53:45.765Z,34.90
2019-06-26T12:56:39.798Z,35.30
2019-06-26T12:59:09.874Z,36.40
2019-06-26T13:02:05.025Z,37.60
2019-06-26T13:04:35.100Z,39.10
2019-06-26T13:07:05.210Z,39.80
2019-06-26T13:09:35.304Z,40.10
2019-06-26T13:12:05.565Z,40.70
2019-06-26T13:14:35.725Z,41.00
2019-06-26T13:17:05.900Z,41.40
2019-06-26T13:19:36.010Z,41.60
2019-06-26T13:22:06.083Z,41.00
2019-06-26T13:24:36.164Z,42.50
2019-06-26T13:27:06.334Z,41.60
2019-06-26T13:29:36.539Z,41.70
2019-06-26T13:32:06.981Z,41.80
2019-06-26T13:34:40.305Z,41.90
2019-06-26T13:37:10.428Z,41.50
2019-06-26T13:39:40.512Z,42.90
2019-06-26T13:42:10.718Z,43.50
2019-06-26T13:44:40.789Z,42.60
2019-06-26T13:47:10.924Z,42.60
2019-06-26T13:49:41.037Z,42.90
2019-06-26T13:52:11.137Z,41.70
2019-06-26T13:54:41.238Z,42.30
2019-06-26T13:57:11.305Z,43.90
2019-06-26T13:59:41.396Z,42.80
2019-06-26T14:02:11.441Z,41.00
2019-06-26T14:04:41.589Z,39.90
2019-06-26T14:07:35.217Z,41.00
2019-06-26T14:10:05.656Z,42.50
2019-06-26T14:12:55.856Z,42.90
2019-06-26T14:15:25.989Z,43.90
2019-06-26T14:18:06.580Z,44.20
2019-06-26T14:20:39.505Z,44.50
2019-06-26T14:23:09.685Z,44.50
2019-06-26T14:25:39.845Z,43.70
2019-06-26T14:28:10.181Z,44.60
2019-06-26T14:30:40.256Z,44.80
2019-06-26T14:33:10.424Z,44.90
2019-06-26T14:35:40.470Z,44.80
2019-06-26T14:38:10.630Z,45.20
2019-06-26T14:40:40.700Z,45.70
2019-06-26T14:43:10.864Z,45.60
2019-06-26T14:45:40.970Z,45.00
2019-06-26T14:48:11.139Z,45.90
2019-06-26T14:50:54.696Z,45.60
2019-06-26T14:53:24.773Z,44.30
2019-06-26T14:56:16.602Z,44.60
2019-06-26T14:58:46.712Z,43.20
2019-06-26T15:01:45.165Z,42.10
2019-06-26T15:04:15.354Z,42.50
2019-06-26T15:07:07.331Z,43.70
2019-06-26T15:09:37.442Z,45.00
2019-06-26T15:12:29.506Z,45.30
2019-06-26T15:14:59.605Z,45.50
2019-06-26T15:17:45.279Z,44.80
2019-06-26T15:20:16.064Z,43.00
2019-06-26T15:22:47.082Z,44.00
2019-06-26T15:25:17.569Z,44.50
2019-06-26T15:27:47.641Z,43.20
2019-06-26T15:30:19.371Z,42.50
2019-06-26T15:32:49.504Z,40.80
2019-06-26T15:35:19.756Z,40.10
2019-06-26T15:37:49.822Z,42.00
2019-06-26T15:40:19.931Z,43.50
2019-06-26T15:42:50.004Z,44.60
2019-06-26T15:45:20.913Z,45.10
2019-06-26T15:47:51.220Z,44.70
2019-06-26T15:50:25.165Z,45.10
2019-06-26T15:52:56.228Z,44.80
2019-06-26T15:55:49.936Z,45.00
2019-06-26T15:58:20.111Z,45.60
2019-06-26T16:01:09.323Z,44.50
2019-06-26T16:03:39.445Z,44.30
2019-06-26T16:06:09.555Z,45.00
2019-06-26T16:08:39.686Z,44.10
2019-06-26T16:11:09.784Z,43.20
2019-06-26T16:13:39.923Z,42.30
2019-06-26T16:16:10.010Z,41.10
2019-06-26T16:18:48.030Z,39.70
2019-06-26T16:21:18.134Z,38.30
2019-06-26T16:23:48.321Z,37.50
2019-06-26T16:26:18.388Z,39.30
2019-06-26T16:28:48.501Z,41.50
2019-06-26T16:31:18.594Z,40.20
2019-06-26T16:33:48.726Z,39.50
2019-06-26T16:36:18.792Z,41.40
2019-06-26T16:39:03.848Z,42.00
2019-06-26T16:41:33.917Z,39.50
2019-06-26T16:44:04.291Z,38.60
2019-06-26T16:46:34.490Z,38.20
2019-06-26T16:49:04.969Z,39.50
2019-06-26T16:51:35.090Z,40.20
2019-06-26T16:54:05.155Z,41.40
2019-06-26T16:56:35.250Z,42.10
2019-06-26T16:59:05.350Z,40.90
2019-06-26T17:01:35.449Z,39.30
2019-06-26T17:04:05.517Z,39.10
2019-06-26T17:06:35.635Z,37.40
2019-06-26T17:09:07.254Z,36.00
2019-06-26T17:11:40.293Z,35.30
2019-06-26T17:14:10.388Z,34.50
2019-06-26T17:17:00.888Z,33.90
2019-06-26T17:19:31.017Z,33.40
2019-06-26T17:22:03.251Z,32.60
2019-06-26T17:24:33.013Z,32.00
2019-06-26T17:27:03.413Z,31.70
2019-06-26T17:29:33.539Z,31.50
2019-06-26T17:32:03.678Z,31.40
2019-06-26T17:34:33.752Z,31.20
2019-06-26T17:37:03.833Z,31.00
2019-06-26T17:39:33.924Z,31.00
2019-06-26T17:42:04.013Z,30.90
2019-06-26T17:44:34.105Z,30.60
2019-06-26T17:47:05.490Z,30.40
2019-06-26T17:49:35.680Z,30.30
2019-06-26T17:52:05.777Z,30.30
2019-06-26T17:54:50.344Z,30.20
2019-06-26T17:57:20.436Z,30.10
2019-06-26T18:00:16.059Z,29.80
2019-06-26T18:02:46.141Z,29.70
2019-06-26T18:05:38.276Z,29.60
2019-06-26T18:08:08.364Z,29.50
2019-06-26T18:11:05.711Z,29.40
2019-06-26T18:13:35.792Z,29.30
2019-06-26T18:16:26.180Z,29.10
2019-06-26T18:18:56.260Z,29.00
2019-06-26T18:21:49.018Z,29.00
2019-06-26T18:24:19.082Z,28.90
2019-06-26T18:27:03.487Z,28.70
2019-06-26T18:29:33.613Z,28.70
2019-06-26T18:32:03.725Z,28.50
2019-06-26T18:34:33.826Z,28.40
2019-06-26T18:37:04.059Z,28.30
2019-06-26T18:39:34.110Z,28.20
2019-06-26T18:42:04.210Z,28.00
2019-06-26T18:44:34.305Z,27.90
2019-06-26T18:47:04.405Z,27.70
2019-06-26T18:49:34.497Z,27.60
2019-06-26T18:52:07.623Z,27.50
2019-06-26T18:54:36.466Z,27.30
2019-06-26T18:57:06.568Z,27.10
2019-06-26T18:59:42.213Z,27.10
2019-06-26T19:02:14.308Z,26.90
2019-06-26T19:05:05.428Z,26.80
2019-06-26T19:07:35.561Z,26.70
2019-06-26T19:10:06.340Z,26.60
2019-06-26T19:12:36.526Z,26.50
2019-06-26T19:15:07.446Z,26.60
2019-06-26T19:17:37.545Z,26.50
2019-06-26T19:20:08.584Z,26.50
2019-06-26T19:22:38.720Z,26.50
2019-06-26T19:25:09.437Z,26.60
2019-06-26T19:27:39.499Z,26.60
2019-06-26T19:30:10.085Z,26.60
2019-06-26T19:32:40.217Z,26.70
2019-06-26T19:35:25.699Z,26.70
2019-06-26T19:37:42.230Z,26.70
2019-06-26T19:40:12.404Z,26.70
2019-06-26T19:43:00.800Z,26.70
2019-06-26T19:45:30.606Z,26.60
2019-06-26T19:48:21.710Z,26.60
2019-06-26T19:50:51.845Z,26.70
2019-06-26T19:53:38.777Z,26.70
2019-06-26T19:56:08.882Z,26.70
2019-06-26T19:58:40.144Z,26.70
2019-06-26T20:01:10.324Z,26.70
2019-06-26T20:03:40.478Z,26.60
2019-06-26T20:06:10.621Z,26.60
2019-06-26T20:08:52.248Z,26.60
2019-06-26T20:11:12.516Z,26.50
2019-06-26T20:13:42.758Z,26.50
2019-06-26T20:16:12.838Z,26.50
2019-06-26T20:18:43.135Z,26.40
2019-06-26T20:21:13.307Z,26.30
2019-06-26T20:23:43.380Z,26.30
2019-06-26T20:26:13.569Z,26.40
2019-06-26T20:28:43.680Z,26.30
2019-06-26T20:31:40.897Z,26.30
2019-06-26T20:34:10.957Z,26.10
2019-06-26T20:36:58.679Z,26.10
2019-06-26T20:39:28.826Z,26.00
2019-06-26T20:42:19.586Z,26.00
2019-06-26T20:44:49.676Z,26.10
2019-06-26T20:50:08.904Z,26.00
2019-06-26T20:52:38.993Z,25.90
2019-06-26T20:55:09.211Z,25.80
2019-06-26T20:57:39.314Z,25.80
2019-06-26T21:00:10.087Z,25.70
2019-06-26T21:02:40.187Z,25.70
2019-06-26T21:05:10.420Z,25.60
2019-06-26T21:07:40.483Z,25.50
2019-06-26T21:10:11.031Z,25.40
2019-06-26T21:12:41.144Z,25.30
2019-06-26T21:15:11.999Z,25.20
2019-06-26T21:17:42.089Z,25.10
2019-06-26T21:20:12.171Z,25.10
2019-06-26T21:22:42.310Z,25.00
2019-06-26T21:25:30.813Z,24.90
2019-06-26T21:28:01.009Z,24.80
2019-06-26T21:30:37.833Z,24.60
2019-06-26T21:33:03.120Z,24.60
2019-06-26T21:35:33.286Z,24.50
2019-06-26T21:38:03.459Z,24.50
2019-06-26T21:40:33.634Z,24.40
2019-06-26T21:43:03.907Z,24.40
2019-06-26T21:45:34.420Z,24.40
2019-06-26T21:48:04.532Z,24.30
2019-06-26T21:50:35.088Z,24.30
2019-06-26T21:53:05.188Z,24.10
2019-06-26T21:55:35.291Z,24.10
2019-06-26T21:58:05.426Z,24.00
2019-06-26T22:00:36.722Z,23.90
2019-06-26T22:03:22.868Z,23.80
2019-06-26T22:05:54.262Z,23.70
2019-06-26T22:08:44.098Z,23.60
2019-06-26T22:11:18.496Z,23.60
2019-06-26T22:14:08.343Z,23.60
2019-06-26T22:16:38.474Z,23.60
2019-06-26T22:19:30.072Z,23.40
2019-06-26T22:22:00.202Z,23.40
2019-06-26T22:24:30.321Z,23.30
2019-06-26T22:27:00.428Z,23.20
2019-06-26T22:29:30.505Z,23.30
2019-06-26T22:32:00.749Z,23.00
2019-06-26T22:34:30.980Z,23.00
2019-06-26T22:37:01.084Z,23.00
2019-06-26T22:39:31.156Z,23.00
2019-06-26T22:42:01.257Z,22.90
2019-06-26T22:44:31.331Z,22.90
2019-06-26T22:47:01.464Z,22.90
2019-06-26T22:49:31.550Z,22.90
2019-06-26T22:52:01.698Z,23.00
2019-06-26T22:54:32.137Z,23.00
2019-06-26T22:57:19.914Z,23.00
2019-06-26T22:59:49.970Z,22.90
2019-06-26T23:02:22.750Z,22.90
2019-06-26T23:04:52.833Z,23.00
2019-06-26T23:07:22.937Z,23.10
2019-06-26T23:09:53.029Z,23.10
2019-06-26T23:12:23.185Z,23.10
2019-06-26T23:14:53.286Z,23.00
2019-06-26T23:17:23.388Z,22.90
2019-06-26T23:19:53.485Z,22.90
2019-06-26T23:22:23.598Z,22.90
2019-06-26T23:25:06.991Z,22.90
2019-06-26T23:27:37.081Z,22.70
2019-06-26T23:30:30.114Z,22.70
2019-06-26T23:33:00.217Z,22.60
2019-06-26T23:35:30.405Z,22.40
2019-06-26T23:38:00.562Z,22.40
2019-06-26T23:40:30.613Z,22.30
2019-06-26T23:43:00.724Z,22.20
2019-06-26T23:45:30.786Z,22.10
2019-06-26T23:48:00.971Z,22.00
2019-06-26T23:50:31.034Z,22.00
2019-06-26T23:53:01.144Z,21.90
2019-06-26T23:55:31.197Z,21.90
2019-06-26T23:58:01.287Z,21.80
